EDW438 LSZH-LDSP
Flight info
| Callsign | EDW438 |
|---|---|
| Flight time | N/A |
| Altitude | 37000 |
| Route | DEGES Z2 XEBIX L607 ELMEM N606 GIRIS DCT NIVAS DCT BADOP DCT BABAG DCT PEVAL DCT MINTU DCT SAL |
| Aircraft | A320/M-SDE2E3FGHIJ1RWXY/LB1 |
Departure
| Time | 2026-02-18 23:56 |
|---|---|
| Airport | Zürich Airport (LSZH) |
Arrival
| Time | N/A |
|---|---|
| Airport | Split Saint Jerome Airport (LDSP) |
| Time | Latitude | Longitude | Altitude | Speed | Heading |
|---|---|---|---|---|---|
| 2026-02-18 22:13 | 47.44849 | 8.56148 | 1399 ft | 0 kts | 65° |
| 2026-02-18 23:29 | 47.44845 | 8.56134 | 1407 ft | 3 kts | 66° |
| 2026-02-18 23:30 | 47.44837 | 8.56107 | 1402 ft | 3 kts | 67° |
| 2026-02-18 23:30 | 47.44829 | 8.56080 | 1404 ft | 3 kts | 58° |
| 2026-02-18 23:30 | 47.44817 | 8.56058 | 1405 ft | 2 kts | 31° |
| 2026-02-18 23:30 | 47.44802 | 8.56046 | 1404 ft | 3 kts | 14° |
| 2026-02-18 23:31 | 47.44783 | 8.56045 | 1403 ft | 3 kts | 342° |
| 2026-02-18 23:31 | 47.44766 | 8.56055 | 1404 ft | 2 kts | 334° |
| 2026-02-18 23:31 | 47.44762 | 8.56058 | 1403 ft | 0 kts | 335° |
| 2026-02-18 23:42 | 47.44772 | 8.56051 | 1408 ft | 2 kts | 335° |
| 2026-02-18 23:42 | 47.44783 | 8.56044 | 1409 ft | 2 kts | 336° |
| 2026-02-18 23:42 | 47.44795 | 8.56036 | 1400 ft | 2 kts | 337° |
| 2026-02-18 23:42 | 47.44811 | 8.56026 | 1407 ft | 3 kts | 335° |
| 2026-02-18 23:43 | 47.44842 | 8.56004 | 1408 ft | 7 kts | 334° |
| 2026-02-18 23:43 | 47.44894 | 8.55966 | 1404 ft | 9 kts | 334° |
| 2026-02-18 23:43 | 47.44935 | 8.55924 | 1406 ft | 5 kts | 304° |
| 2026-02-18 23:43 | 47.44943 | 8.55886 | 1411 ft | 4 kts | 281° |
| 2026-02-18 23:44 | 47.44950 | 8.55836 | 1404 ft | 7 kts | 281° |
| 2026-02-18 23:44 | 47.44983 | 8.55761 | 1404 ft | 8 kts | 323° |
| 2026-02-18 23:44 | 47.45023 | 8.55749 | 1407 ft | 3 kts | 346° |
| 2026-02-18 23:44 | 47.45043 | 8.55729 | 1414 ft | 6 kts | 321° |
| 2026-02-18 23:45 | 47.45194 | 8.55608 | 1412 ft | 17 kts | 336° |
| 2026-02-18 23:45 | 47.45299 | 8.55557 | 1409 ft | 15 kts | 340° |
| 2026-02-18 23:45 | 47.45404 | 8.55488 | 1406 ft | 18 kts | 335° |
| 2026-02-18 23:46 | 47.45534 | 8.55399 | 1404 ft | 23 kts | 335° |
| 2026-02-18 23:46 | 47.45689 | 8.55306 | 1402 ft | 24 kts | 341° |
| 2026-02-18 23:46 | 47.45839 | 8.55217 | 1403 ft | 20 kts | 354° |
| 2026-02-18 23:46 | 47.45886 | 8.55348 | 1400 ft | 15 kts | 100° |
| 2026-02-18 23:47 | 47.45880 | 8.55498 | 1409 ft | 15 kts | 77° |
| 2026-02-18 23:47 | 47.45950 | 8.55599 | 1408 ft | 14 kts | 67° |
| 2026-02-18 23:47 | 47.45948 | 8.55741 | 1407 ft | 14 kts | 96° |
| 2026-02-18 23:47 | 47.45938 | 8.55884 | 1405 ft | 14 kts | 96° |
| 2026-02-18 23:48 | 47.45927 | 8.56040 | 1412 ft | 15 kts | 96° |
| 2026-02-18 23:48 | 47.45922 | 8.56122 | 1409 ft | 2 kts | 96° |
| 2026-02-18 23:48 | 47.45921 | 8.56128 | 1409 ft | 0 kts | 96° |
| 2026-02-18 23:51 | 47.45921 | 8.56130 | 1409 ft | 2 kts | 96° |
| 2026-02-18 23:51 | 47.45915 | 8.56242 | 1412 ft | 18 kts | 81° |
| 2026-02-18 23:51 | 47.46012 | 8.56324 | 1414 ft | 18 kts | 7° |
| 2026-02-18 23:52 | 47.46122 | 8.56398 | 1415 ft | 18 kts | 37° |
| 2026-02-18 23:52 | 47.46178 | 8.56382 | 1410 ft | 0 kts | 317° |
| 2026-02-18 23:52 | 47.46260 | 8.56291 | 1407 ft | 19 kts | 306° |
| 2026-02-18 23:53 | 47.46446 | 8.55948 | 1401 ft | 5 kts | 252° |
| 2026-02-18 23:53 | 47.46429 | 8.55941 | 1403 ft | 6 kts | 184° |
| 2026-02-18 23:53 | 47.46347 | 8.55963 | 1407 ft | 17 kts | 167° |
| 2026-02-18 23:54 | 47.46203 | 8.56027 | 1408 ft | 24 kts | 153° |
| 2026-02-18 23:54 | 47.46067 | 8.56188 | 1409 ft | 26 kts | 135° |
| 2026-02-18 23:54 | 47.46096 | 8.56364 | 1415 ft | 18 kts | 33° |
| 2026-02-18 23:54 | 47.46208 | 8.56334 | 1408 ft | 18 kts | 321° |
| 2026-02-18 23:55 | 47.46327 | 8.56177 | 1407 ft | 38 kts | 317° |
| 2026-02-18 23:55 | 47.46704 | 8.55669 | 1397 ft | 106 kts | 317° |
| 2026-02-18 23:55 | 47.47382 | 8.54746 | 1388 ft | 156 kts | 317° |
| 2026-02-18 23:55 | 47.48220 | 8.53635 | 1904 ft | 158 kts | 318° |
| 2026-02-18 23:56 | 47.49058 | 8.52628 | 2593 ft | 156 kts | 332° |
| 2026-02-18 23:56 | 47.50035 | 8.51959 | 3047 ft | 155 kts | 324° |
| 2026-02-18 23:56 | 47.50795 | 8.50747 | 3303 ft | 166 kts | 302° |
| 2026-02-18 23:56 | 47.51595 | 8.49310 | 3372 ft | 194 kts | 318° |
| 2026-02-18 23:57 | 47.53389 | 8.46073 | 3887 ft | 217 kts | 278° |
| 2026-02-18 23:57 | 47.53379 | 8.43930 | 4882 ft | 202 kts | 254° |
| 2026-02-18 23:57 | 47.52854 | 8.42058 | 5889 ft | 195 kts | 243° |
| 2026-02-18 23:58 | 47.52255 | 8.40257 | 6674 ft | 195 kts | 245° |
| 2026-02-18 23:58 | 47.51589 | 8.38492 | 7367 ft | 200 kts | 232° |